sensor_id;sensor_type;location;lat;lon;timestamp;P1;durP1;ratioP1;P2;durP2;ratioP2
61905;SDS011;47863;55.766;37.672;2022-12-24T00:02:13;11.40;;;6.15;;
61905;SDS011;47863;55.766;37.672;2022-12-24T00:04:39;10.48;;;4.65;;
61905;SDS011;47863;55.766;37.672;2022-12-24T00:07:05;11.00;;;5.57;;
61905;SDS011;47863;55.766;37.672;2022-12-24T00:09:31;10.68;;;4.72;;
61905;SDS011;47863;55.766;37.672;2022-12-24T00:11:56;9.80;;;5.63;;
61905;SDS011;47863;55.766;37.672;2022-12-24T00:14:22;13.02;;;5.75;;
61905;SDS011;47863;55.766;37.672;2022-12-24T00:16:47;8.85;;;5.00;;
61905;SDS011;47863;55.766;37.672;2022-12-24T00:19:13;10.88;;;6.25;;
61905;SDS011;47863;55.766;37.672;2022-12-24T00:21:38;12.43;;;6.03;;
61905;SDS011;47863;55.766;37.672;2022-12-24T00:24:04;9.80;;;5.22;;
61905;SDS011;47863;55.766;37.672;2022-12-24T00:26:31;9.30;;;4.68;;
61905;SDS011;47863;55.766;37.672;2022-12-24T00:28:57;11.63;;;5.13;;
61905;SDS011;47863;55.766;37.672;2022-12-24T00:31:23;12.50;;;7.07;;
61905;SDS011;47863;55.766;37.672;2022-12-24T00:33:49;11.82;;;5.72;;
61905;SDS011;47863;55.766;37.672;2022-12-24T00:36:15;13.57;;;5.32;;
61905;SDS011;47863;55.766;37.672;2022-12-24T00:38:42;11.15;;;5.13;;
61905;SDS011;47863;55.766;37.672;2022-12-24T00:41:09;12.60;;;6.35;;
61905;SDS011;47863;55.766;37.672;2022-12-24T00:44:01;10.70;;;4.50;;
61905;SDS011;47863;55.766;37.672;2022-12-24T00:46:34;8.93;;;3.65;;
61905;SDS011;47863;55.766;37.672;2022-12-24T00:49:01;25.52;;;7.22;;
61905;SDS011;47863;55.766;37.672;2022-12-24T00:51:28;12.85;;;6.53;;
61905;SDS011;47863;55.766;37.672;2022-12-24T00:53:53;11.00;;;6.35;;
61905;SDS011;47863;55.766;37.672;2022-12-24T00:56:19;11.57;;;5.35;;
61905;SDS011;47863;55.766;37.672;2022-12-24T00:58:45;8.98;;;4.63;;
61905;SDS011;47863;55.766;37.672;2022-12-24T01:01:11;14.82;;;7.85;;
61905;SDS011;47863;55.766;37.672;2022-12-24T01:03:37;12.40;;;6.00;;
61905;SDS011;47863;55.766;37.672;2022-12-24T01:06:03;11.20;;;5.25;;
61905;SDS011;47863;55.766;37.672;2022-12-24T01:08:31;11.15;;;4.88;;
61905;SDS011;47863;55.766;37.672;2022-12-24T01:10:58;12.32;;;5.57;;
61905;SDS011;47863;55.766;37.672;2022-12-24T01:13:24;12.15;;;6.35;;
61905;SDS011;47863;55.766;37.672;2022-12-24T01:15:50;13.70;;;6.53;;
61905;SDS011;47863;55.766;37.672;2022-12-24T01:18:15;12.63;;;5.43;;
61905;SDS011;47863;55.766;37.672;2022-12-24T01:20:41;9.95;;;4.57;;
61905;SDS011;47863;55.766;37.672;2022-12-24T01:23:07;14.40;;;6.47;;
61905;SDS011;47863;55.766;37.672;2022-12-24T01:25:32;12.77;;;6.30;;
61905;SDS011;47863;55.766;37.672;2022-12-24T01:27:58;12.38;;;6.82;;
61905;SDS011;47863;55.766;37.672;2022-12-24T01:30:24;10.77;;;5.57;;
61905;SDS011;47863;55.766;37.672;2022-12-24T01:32:50;8.43;;;4.93;;
61905;SDS011;47863;55.766;37.672;2022-12-24T01:35:15;15.88;;;7.28;;
61905;SDS011;47863;55.766;37.672;2022-12-24T01:37:41;14.05;;;7.35;;
61905;SDS011;47863;55.766;37.672;2022-12-24T01:40:07;14.40;;;6.75;;
61905;SDS011;47863;55.766;37.672;2022-12-24T01:43:16;17.58;;;7.82;;
61905;SDS011;47863;55.766;37.672;2022-12-24T01:49:07;16.83;;;7.40;;
61905;SDS011;47863;55.766;37.672;2022-12-24T01:53:53;12.05;;;5.53;;
61905;SDS011;47863;55.766;37.672;2022-12-24T01:56:24;16.02;;;6.65;;
61905;SDS011;47863;55.766;37.672;2022-12-24T01:58:54;17.85;;;8.07;;
61905;SDS011;47863;55.766;37.672;2022-12-24T02:01:24;16.85;;;8.15;;
61905;SDS011;47863;55.766;37.672;2022-12-24T02:03:50;12.82;;;7.25;;
61905;SDS011;47863;55.766;37.672;2022-12-24T02:06:16;13.90;;;7.47;;
61905;SDS011;47863;55.766;37.672;2022-12-24T02:08:44;16.40;;;8.23;;
61905;SDS011;47863;55.766;37.672;2022-12-24T02:11:19;13.43;;;6.78;;
61905;SDS011;47863;55.766;37.672;2022-12-24T02:13:47;17.80;;;8.43;;
61905;SDS011;47863;55.766;37.672;2022-12-24T02:16:20;13.70;;;7.00;;
61905;SDS011;47863;55.766;37.672;2022-12-24T02:19:04;12.60;;;6.50;;
61905;SDS011;47863;55.766;37.672;2022-12-24T02:22:00;16.27;;;7.45;;
61905;SDS011;47863;55.766;37.672;2022-12-24T02:25:03;14.48;;;6.90;;
61905;SDS011;47863;55.766;37.672;2022-12-24T02:30:08;19.13;;;8.65;;
61905;SDS011;47863;55.766;37.672;2022-12-24T02:32:48;16.20;;;8.30;;
61905;SDS011;47863;55.766;37.672;2022-12-24T02:36:03;17.23;;;8.68;;
61905;SDS011;47863;55.766;37.672;2022-12-24T02:41:27;12.50;;;7.30;;
61905;SDS011;47863;55.766;37.672;2022-12-24T02:44:17;13.55;;;5.43;;
61905;SDS011;47863;55.766;37.672;2022-12-24T02:46:46;12.98;;;6.10;;
61905;SDS011;47863;55.766;37.672;2022-12-24T02:49:12;12.70;;;7.40;;
61905;SDS011;47863;55.766;37.672;2022-12-24T02:51:38;17.98;;;8.50;;
61905;SDS011;47863;55.766;37.672;2022-12-24T02:54:04;13.18;;;6.82;;
61905;SDS011;47863;55.766;37.672;2022-12-24T03:12:42;13.70;;;6.22;;
61905;SDS011;47863;55.766;37.672;2022-12-24T03:15:08;15.32;;;6.68;;
61905;SDS011;47863;55.766;37.672;2022-12-24T03:17:37;18.40;;;9.07;;
61905;SDS011;47863;55.766;37.672;2022-12-24T03:20:06;19.90;;;9.70;;
61905;SDS011;47863;55.766;37.672;2022-12-24T03:22:34;15.13;;;7.05;;
61905;SDS011;47863;55.766;37.672;2022-12-24T03:25:00;19.00;;;8.10;;
61905;SDS011;47863;55.766;37.672;2022-12-24T03:27:28;13.05;;;6.47;;
61905;SDS011;47863;55.766;37.672;2022-12-24T03:29:56;20.05;;;8.35;;
61905;SDS011;47863;55.766;37.672;2022-12-24T03:32:31;18.55;;;8.02;;
61905;SDS011;47863;55.766;37.672;2022-12-24T03:34:57;12.32;;;5.20;;
61905;SDS011;47863;55.766;37.672;2022-12-24T03:37:23;17.42;;;7.72;;
61905;SDS011;47863;55.766;37.672;2022-12-24T03:39:49;18.95;;;9.65;;
61905;SDS011;47863;55.766;37.672;2022-12-24T03:42:15;14.88;;;6.80;;
61905;SDS011;47863;55.766;37.672;2022-12-24T03:44:41;22.67;;;10.80;;
61905;SDS011;47863;55.766;37.672;2022-12-24T03:47:06;17.83;;;7.88;;
61905;SDS011;47863;55.766;37.672;2022-12-24T03:49:32;15.93;;;7.63;;
61905;SDS011;47863;55.766;37.672;2022-12-24T03:51:58;17.00;;;7.97;;
61905;SDS011;47863;55.766;37.672;2022-12-24T03:54:23;13.15;;;6.47;;
61905;SDS011;47863;55.766;37.672;2022-12-24T03:56:49;16.45;;;7.18;;
61905;SDS011;47863;55.766;37.672;2022-12-24T03:59:14;19.23;;;9.35;;
61905;SDS011;47863;55.766;37.672;2022-12-24T04:01:40;16.33;;;7.72;;
61905;SDS011;47863;55.766;37.672;2022-12-24T04:04:06;16.42;;;8.38;;
61905;SDS011;47863;55.766;37.672;2022-12-24T04:06:31;20.92;;;9.38;;
61905;SDS011;47863;55.766;37.672;2022-12-24T04:08:57;14.23;;;6.35;;
61905;SDS011;47863;55.766;37.672;2022-12-24T04:13:54;17.45;;;8.45;;
61905;SDS011;47863;55.766;37.672;2022-12-24T04:16:20;15.27;;;6.82;;
61905;SDS011;47863;55.766;37.672;2022-12-24T04:18:45;13.15;;;5.68;;
61905;SDS011;47863;55.766;37.672;2022-12-24T04:21:11;16.63;;;6.85;;
61905;SDS011;47863;55.766;37.672;2022-12-24T04:23:37;16.88;;;8.70;;
61905;SDS011;47863;55.766;37.672;2022-12-24T04:26:05;15.52;;;7.40;;
61905;SDS011;47863;55.766;37.672;2022-12-24T04:28:33;18.35;;;8.57;;
61905;SDS011;47863;55.766;37.672;2022-12-24T04:31:00;15.80;;;8.05;;
61905;SDS011;47863;55.766;37.672;2022-12-24T04:33:28;15.93;;;7.90;;
61905;SDS011;47863;55.766;37.672;2022-12-24T04:35:58;14.13;;;6.70;;
61905;SDS011;47863;55.766;37.672;2022-12-24T04:38:24;23.90;;;10.10;;
61905;SDS011;47863;55.766;37.672;2022-12-24T04:40:57;19.27;;;9.40;;
61905;SDS011;47863;55.766;37.672;2022-12-24T04:43:27;22.33;;;10.30;;
61905;SDS011;47863;55.766;37.672;2022-12-24T04:45:53;18.02;;;9.32;;
61905;SDS011;47863;55.766;37.672;2022-12-24T04:48:19;10.13;;;5.05;;
61905;SDS011;47863;55.766;37.672;2022-12-24T04:50:45;18.58;;;9.07;;
61905;SDS011;47863;55.766;37.672;2022-12-24T04:53:11;18.98;;;8.13;;
61905;SDS011;47863;55.766;37.672;2022-12-24T04:55:42;22.45;;;9.85;;
61905;SDS011;47863;55.766;37.672;2022-12-24T04:58:09;17.83;;;7.97;;
61905;SDS011;47863;55.766;37.672;2022-12-24T05:00:35;21.20;;;9.50;;
61905;SDS011;47863;55.766;37.672;2022-12-24T05:03:00;21.67;;;8.40;;
61905;SDS011;47863;55.766;37.672;2022-12-24T05:05:26;15.90;;;7.50;;
61905;SDS011;47863;55.766;37.672;2022-12-24T05:07:51;23.58;;;9.68;;
61905;SDS011;47863;55.766;37.672;2022-12-24T05:10:18;18.25;;;7.95;;
61905;SDS011;47863;55.766;37.672;2022-12-24T05:12:43;25.45;;;11.00;;
61905;SDS011;47863;55.766;37.672;2022-12-24T05:15:09;21.02;;;8.90;;
61905;SDS011;47863;55.766;37.672;2022-12-24T05:17:35;22.10;;;10.32;;
61905;SDS011;47863;55.766;37.672;2022-12-24T05:20:00;22.15;;;9.30;;
61905;SDS011;47863;55.766;37.672;2022-12-24T05:22:28;22.50;;;10.55;;
61905;SDS011;47863;55.766;37.672;2022-12-24T05:25:12;17.88;;;8.90;;
61905;SDS011;47863;55.766;37.672;2022-12-24T05:30:22;18.45;;;7.65;;
61905;SDS011;47863;55.766;37.672;2022-12-24T05:32:48;21.42;;;7.07;;
61905;SDS011;47863;55.766;37.672;2022-12-24T05:35:13;11.60;;;5.28;;
61905;SDS011;47863;55.766;37.672;2022-12-24T05:37:39;17.38;;;8.35;;
61905;SDS011;47863;55.766;37.672;2022-12-24T05:40:04;20.70;;;9.02;;
61905;SDS011;47863;55.766;37.672;2022-12-24T05:42:30;18.90;;;8.23;;
61905;SDS011;47863;55.766;37.672;2022-12-24T05:44:56;19.63;;;9.52;;
61905;SDS011;47863;55.766;37.672;2022-12-24T05:47:22;22.50;;;9.85;;
61905;SDS011;47863;55.766;37.672;2022-12-24T05:49:47;15.48;;;7.13;;
61905;SDS011;47863;55.766;37.672;2022-12-24T05:52:13;22.73;;;10.38;;
61905;SDS011;47863;55.766;37.672;2022-12-24T05:54:38;23.70;;;11.20;;
61905;SDS011;47863;55.766;37.672;2022-12-24T05:57:04;23.40;;;10.98;;
61905;SDS011;47863;55.766;37.672;2022-12-24T05:59:29;18.33;;;9.10;;
61905;SDS011;47863;55.766;37.672;2022-12-24T06:01:55;19.02;;;8.05;;
61905;SDS011;47863;55.766;37.672;2022-12-24T06:04:20;18.95;;;9.73;;
61905;SDS011;47863;55.766;37.672;2022-12-24T06:06:46;20.58;;;9.32;;
61905;SDS011;47863;55.766;37.672;2022-12-24T06:09:11;21.20;;;10.13;;
61905;SDS011;47863;55.766;37.672;2022-12-24T06:11:37;15.13;;;7.10;;
61905;SDS011;47863;55.766;37.672;2022-12-24T06:14:02;20.40;;;9.70;;
61905;SDS011;47863;55.766;37.672;2022-12-24T06:16:28;22.05;;;9.70;;
61905;SDS011;47863;55.766;37.672;2022-12-24T06:18:54;24.13;;;10.55;;
61905;SDS011;47863;55.766;37.672;2022-12-24T06:21:19;24.25;;;11.27;;
61905;SDS011;47863;55.766;37.672;2022-12-24T06:23:45;14.30;;;5.90;;
61905;SDS011;47863;55.766;37.672;2022-12-24T06:26:12;15.77;;;7.50;;
61905;SDS011;47863;55.766;37.672;2022-12-24T06:28:40;13.57;;;5.90;;
61905;SDS011;47863;55.766;37.672;2022-12-24T06:31:05;17.08;;;7.00;;
61905;SDS011;47863;55.766;37.672;2022-12-24T06:33:35;16.10;;;7.30;;
61905;SDS011;47863;55.766;37.672;2022-12-24T06:36:01;29.40;;;11.82;;
61905;SDS011;47863;55.766;37.672;2022-12-24T06:38:29;17.58;;;7.88;;
61905;SDS011;47863;55.766;37.672;2022-12-24T06:40:55;19.30;;;7.47;;
61905;SDS011;47863;55.766;37.672;2022-12-24T06:43:21;17.17;;;7.40;;
61905;SDS011;47863;55.766;37.672;2022-12-24T06:45:47;24.27;;;8.82;;
61905;SDS011;47863;55.766;37.672;2022-12-24T06:48:12;17.95;;;7.97;;
61905;SDS011;47863;55.766;37.672;2022-12-24T06:50:39;23.85;;;9.48;;
61905;SDS011;47863;55.766;37.672;2022-12-24T06:53:04;20.75;;;9.43;;
61905;SDS011;47863;55.766;37.672;2022-12-24T06:55:30;21.48;;;9.40;;
61905;SDS011;47863;55.766;37.672;2022-12-24T06:57:56;16.80;;;7.40;;
61905;SDS011;47863;55.766;37.672;2022-12-24T07:00:22;21.85;;;8.07;;
61905;SDS011;47863;55.766;37.672;2022-12-24T07:02:47;21.67;;;10.05;;
61905;SDS011;47863;55.766;37.672;2022-12-24T07:05:13;20.75;;;8.27;;
61905;SDS011;47863;55.766;37.672;2022-12-24T07:07:39;25.73;;;10.68;;
61905;SDS011;47863;55.766;37.672;2022-12-24T07:10:07;18.45;;;7.78;;
61905;SDS011;47863;55.766;37.672;2022-12-24T07:12:35;19.52;;;7.53;;
61905;SDS011;47863;55.766;37.672;2022-12-24T07:15:00;37.20;;;13.88;;
61905;SDS011;47863;55.766;37.672;2022-12-24T07:17:26;21.90;;;9.75;;
61905;SDS011;47863;55.766;37.672;2022-12-24T07:19:51;13.07;;;6.55;;
61905;SDS011;47863;55.766;37.672;2022-12-24T07:22:17;20.48;;;8.68;;
61905;SDS011;47863;55.766;37.672;2022-12-24T07:24:42;27.80;;;11.43;;
61905;SDS011;47863;55.766;37.672;2022-12-24T07:27:08;23.23;;;10.07;;
61905;SDS011;47863;55.766;37.672;2022-12-24T07:29:34;24.77;;;10.63;;
61905;SDS011;47863;55.766;37.672;2022-12-24T07:31:59;17.92;;;8.88;;
61905;SDS011;47863;55.766;37.672;2022-12-24T07:34:25;24.55;;;10.40;;
61905;SDS011;47863;55.766;37.672;2022-12-24T07:36:51;22.52;;;10.15;;
61905;SDS011;47863;55.766;37.672;2022-12-24T07:39:16;22.60;;;8.15;;
61905;SDS011;47863;55.766;37.672;2022-12-24T07:41:42;17.73;;;7.13;;
61905;SDS011;47863;55.766;37.672;2022-12-24T07:44:10;25.75;;;9.63;;
61905;SDS011;47863;55.766;37.672;2022-12-24T07:46:37;26.52;;;10.30;;
61905;SDS011;47863;55.766;37.672;2022-12-24T07:49:03;22.02;;;9.13;;
61905;SDS011;47863;55.766;37.672;2022-12-24T07:51:28;19.25;;;7.55;;
61905;SDS011;47863;55.766;37.672;2022-12-24T07:53:54;18.42;;;8.27;;
61905;SDS011;47863;55.766;37.672;2022-12-24T07:56:19;14.88;;;7.25;;
61905;SDS011;47863;55.766;37.672;2022-12-24T07:58:45;25.45;;;9.95;;
61905;SDS011;47863;55.766;37.672;2022-12-24T08:01:10;17.80;;;8.82;;
61905;SDS011;47863;55.766;37.672;2022-12-24T08:03:36;22.65;;;9.43;;
61905;SDS011;47863;55.766;37.672;2022-12-24T08:06:02;25.30;;;10.45;;
61905;SDS011;47863;55.766;37.672;2022-12-24T08:08:27;15.52;;;7.45;;
61905;SDS011;47863;55.766;37.672;2022-12-24T08:10:56;16.08;;;7.93;;
61905;SDS011;47863;55.766;37.672;2022-12-24T08:13:25;22.38;;;8.48;;
61905;SDS011;47863;55.766;37.672;2022-12-24T08:15:51;16.60;;;6.82;;
61905;SDS011;47863;55.766;37.672;2022-12-24T08:18:17;20.85;;;8.20;;
61905;SDS011;47863;55.766;37.672;2022-12-24T08:20:43;24.77;;;10.88;;
61905;SDS011;47863;55.766;37.672;2022-12-24T08:23:08;17.33;;;7.53;;
61905;SDS011;47863;55.766;37.672;2022-12-24T08:25:34;20.95;;;9.05;;
61905;SDS011;47863;55.766;37.672;2022-12-24T08:27:59;16.38;;;7.28;;
61905;SDS011;47863;55.766;37.672;2022-12-24T08:30:25;16.08;;;6.30;;
61905;SDS011;47863;55.766;37.672;2022-12-24T08:32:51;16.50;;;6.57;;
61905;SDS011;47863;55.766;37.672;2022-12-24T08:35:16;35.25;;;10.95;;
61905;SDS011;47863;55.766;37.672;2022-12-24T08:37:42;19.55;;;9.27;;
61905;SDS011;47863;55.766;37.672;2022-12-24T08:40:08;14.98;;;7.68;;
61905;SDS011;47863;55.766;37.672;2022-12-24T08:42:34;17.75;;;8.45;;
61905;SDS011;47863;55.766;37.672;2022-12-24T08:44:59;13.88;;;7.55;;
61905;SDS011;47863;55.766;37.672;2022-12-24T08:47:25;16.15;;;6.72;;
61905;SDS011;47863;55.766;37.672;2022-12-24T08:49:51;14.68;;;6.22;;
61905;SDS011;47863;55.766;37.672;2022-12-24T08:52:16;18.05;;;8.30;;
61905;SDS011;47863;55.766;37.672;2022-12-24T08:54:42;17.92;;;6.97;;
61905;SDS011;47863;55.766;37.672;2022-12-24T08:57:08;15.05;;;6.18;;
61905;SDS011;47863;55.766;37.672;2022-12-24T08:59:33;16.17;;;7.38;;
61905;SDS011;47863;55.766;37.672;2022-12-24T09:01:58;14.13;;;7.00;;
61905;SDS011;47863;55.766;37.672;2022-12-24T09:04:24;17.90;;;7.63;;
61905;SDS011;47863;55.766;37.672;2022-12-24T09:06:49;18.90;;;8.65;;
61905;SDS011;47863;55.766;37.672;2022-12-24T09:09:15;14.68;;;7.53;;
61905;SDS011;47863;55.766;37.672;2022-12-24T09:11:41;14.82;;;7.00;;
61905;SDS011;47863;55.766;37.672;2022-12-24T09:14:06;12.27;;;5.80;;
61905;SDS011;47863;55.766;37.672;2022-12-24T09:16:32;16.23;;;8.07;;
61905;SDS011;47863;55.766;37.672;2022-12-24T09:18:57;15.10;;;6.88;;
61905;SDS011;47863;55.766;37.672;2022-12-24T09:21:23;14.15;;;6.15;;
61905;SDS011;47863;55.766;37.672;2022-12-24T09:23:49;11.60;;;4.97;;
61905;SDS011;47863;55.766;37.672;2022-12-24T09:28:44;13.30;;;5.32;;
61905;SDS011;47863;55.766;37.672;2022-12-24T09:31:10;18.75;;;8.25;;
61905;SDS011;47863;55.766;37.672;2022-12-24T09:33:37;14.77;;;7.32;;
61905;SDS011;47863;55.766;37.672;2022-12-24T09:36:04;11.40;;;6.20;;
61905;SDS011;47863;55.766;37.672;2022-12-24T09:38:30;16.58;;;6.90;;
61905;SDS011;47863;55.766;37.672;2022-12-24T09:40:57;13.10;;;4.40;;
61905;SDS011;47863;55.766;37.672;2022-12-24T09:43:24;14.07;;;6.45;;
61905;SDS011;47863;55.766;37.672;2022-12-24T09:48:20;12.60;;;5.40;;
61905;SDS011;47863;55.766;37.672;2022-12-24T09:50:53;10.27;;;6.00;;
61905;SDS011;47863;55.766;37.672;2022-12-24T09:53:25;15.32;;;6.70;;
61905;SDS011;47863;55.766;37.672;2022-12-24T09:55:55;10.55;;;5.20;;
61905;SDS011;47863;55.766;37.672;2022-12-24T09:58:28;12.35;;;5.93;;
61905;SDS011;47863;55.766;37.672;2022-12-24T10:00:55;12.63;;;6.18;;
61905;SDS011;47863;55.766;37.672;2022-12-24T10:03:21;11.63;;;5.97;;
61905;SDS011;47863;55.766;37.672;2022-12-24T10:05:52;11.88;;;6.93;;
61905;SDS011;47863;55.766;37.672;2022-12-24T10:08:22;8.38;;;4.10;;
61905;SDS011;47863;55.766;37.672;2022-12-24T10:11:06;12.77;;;6.30;;
61905;SDS011;47863;55.766;37.672;2022-12-24T10:13:38;13.98;;;6.75;;
61905;SDS011;47863;55.766;37.672;2022-12-24T10:17:06;10.93;;;5.38;;
61905;SDS011;47863;55.766;37.672;2022-12-24T10:28:04;12.85;;;6.18;;
61905;SDS011;47863;55.766;37.672;2022-12-24T10:30:38;12.93;;;5.50;;
61905;SDS011;47863;55.766;37.672;2022-12-24T10:33:08;14.65;;;7.18;;
61905;SDS011;47863;55.766;37.672;2022-12-24T10:35:42;13.60;;;5.78;;
61905;SDS011;47863;55.766;37.672;2022-12-24T10:38:13;12.52;;;5.88;;
61905;SDS011;47863;55.766;37.672;2022-12-24T10:40:40;12.43;;;6.82;;
61905;SDS011;47863;55.766;37.672;2022-12-24T10:43:18;13.20;;;6.25;;
61905;SDS011;47863;55.766;37.672;2022-12-24T10:48:28;11.95;;;4.93;;
61905;SDS011;47863;55.766;37.672;2022-12-24T10:56:12;12.43;;;5.80;;
61905;SDS011;47863;55.766;37.672;2022-12-24T10:58:44;8.95;;;5.40;;
61905;SDS011;47863;55.766;37.672;2022-12-24T11:01:15;12.10;;;6.05;;
61905;SDS011;47863;55.766;37.672;2022-12-24T11:03:40;10.15;;;5.05;;
61905;SDS011;47863;55.766;37.672;2022-12-24T11:08:33;12.10;;;6.35;;
61905;SDS011;47863;55.766;37.672;2022-12-24T11:11:01;10.38;;;4.75;;
61905;SDS011;47863;55.766;37.672;2022-12-24T11:13:36;12.60;;;5.70;;
61905;SDS011;47863;55.766;37.672;2022-12-24T11:16:06;13.48;;;6.35;;
61905;SDS011;47863;55.766;37.672;2022-12-24T11:18:36;9.55;;;4.47;;
61905;SDS011;47863;55.766;37.672;2022-12-24T11:21:08;12.27;;;6.15;;
61905;SDS011;47863;55.766;37.672;2022-12-24T11:23:34;9.70;;;4.88;;
61905;SDS011;47863;55.766;37.672;2022-12-24T11:25:59;12.73;;;6.75;;
61905;SDS011;47863;55.766;37.672;2022-12-24T11:28:26;10.63;;;6.20;;
61905;SDS011;47863;55.766;37.672;2022-12-24T11:31:07;12.75;;;5.93;;
61905;SDS011;47863;55.766;37.672;2022-12-24T11:33:47;14.38;;;5.78;;
61905;SDS011;47863;55.766;37.672;2022-12-24T11:36:14;8.98;;;4.30;;
61905;SDS011;47863;55.766;37.672;2022-12-24T11:38:46;13.00;;;5.50;;
61905;SDS011;47863;55.766;37.672;2022-12-24T11:41:17;10.43;;;5.05;;
61905;SDS011;47863;55.766;37.672;2022-12-24T11:43:44;8.20;;;4.55;;
61905;SDS011;47863;55.766;37.672;2022-12-24T11:46:13;9.80;;;5.00;;
61905;SDS011;47863;55.766;37.672;2022-12-24T11:48:43;9.98;;;5.78;;
61905;SDS011;47863;55.766;37.672;2022-12-24T11:51:20;9.43;;;4.22;;
61905;SDS011;47863;55.766;37.672;2022-12-24T11:56:44;7.65;;;4.13;;
61905;SDS011;47863;55.766;37.672;2022-12-24T11:59:18;8.38;;;4.90;;
61905;SDS011;47863;55.766;37.672;2022-12-24T12:04:24;9.90;;;4.82;;
61905;SDS011;47863;55.766;37.672;2022-12-24T12:07:36;10.88;;;4.40;;
61905;SDS011;47863;55.766;37.672;2022-12-24T12:10:05;7.45;;;4.65;;
61905;SDS011;47863;55.766;37.672;2022-12-24T12:12:41;7.85;;;3.85;;
61905;SDS011;47863;55.766;37.672;2022-12-24T12:15:19;7.32;;;4.07;;
61905;SDS011;47863;55.766;37.672;2022-12-24T12:17:50;7.03;;;3.10;;
61905;SDS011;47863;55.766;37.672;2022-12-24T12:20:43;5.75;;;2.95;;
61905;SDS011;47863;55.766;37.672;2022-12-24T12:23:15;6.40;;;3.55;;
61905;SDS011;47863;55.766;37.672;2022-12-24T12:25:56;9.27;;;4.60;;
61905;SDS011;47863;55.766;37.672;2022-12-24T12:28:30;7.78;;;4.10;;
61905;SDS011;47863;55.766;37.672;2022-12-24T12:31:02;8.10;;;3.85;;
61905;SDS011;47863;55.766;37.672;2022-12-24T12:33:38;5.95;;;3.10;;
61905;SDS011;47863;55.766;37.672;2022-12-24T12:36:09;7.10;;;3.17;;
61905;SDS011;47863;55.766;37.672;2022-12-24T12:38:36;6.25;;;2.75;;
61905;SDS011;47863;55.766;37.672;2022-12-24T12:58:09;4.93;;;2.40;;
61905;SDS011;47863;55.766;37.672;2022-12-24T13:00:44;6.45;;;2.58;;
61905;SDS011;47863;55.766;37.672;2022-12-24T13:03:24;9.32;;;4.70;;
61905;SDS011;47863;55.766;37.672;2022-12-24T13:06:28;7.03;;;3.47;;
61905;SDS011;47863;55.766;37.672;2022-12-24T13:22:17;7.78;;;3.75;;
61905;SDS011;47863;55.766;37.672;2022-12-24T13:24:50;6.93;;;4.07;;
61905;SDS011;47863;55.766;37.672;2022-12-24T13:27:18;8.68;;;4.07;;
61905;SDS011;47863;55.766;37.672;2022-12-24T13:29:52;10.43;;;4.68;;
61905;SDS011;47863;55.766;37.672;2022-12-24T13:37:19;8.93;;;4.68;;
61905;SDS011;47863;55.766;37.672;2022-12-24T13:40:01;6.43;;;2.97;;
61905;SDS011;47863;55.766;37.672;2022-12-24T13:53:25;8.32;;;3.90;;
61905;SDS011;47863;55.766;37.672;2022-12-24T13:56:06;6.18;;;2.70;;
61905;SDS011;47863;55.766;37.672;2022-12-24T13:58:35;6.32;;;3.55;;
61905;SDS011;47863;55.766;37.672;2022-12-24T14:01:05;7.38;;;4.00;;
61905;SDS011;47863;55.766;37.672;2022-12-24T14:03:41;6.70;;;3.35;;
61905;SDS011;47863;55.766;37.672;2022-12-24T14:06:24;4.30;;;2.35;;
61905;SDS011;47863;55.766;37.672;2022-12-24T14:08:53;6.22;;;3.00;;
61905;SDS011;47863;55.766;37.672;2022-12-24T14:14:32;5.47;;;2.58;;
61905;SDS011;47863;55.766;37.672;2022-12-24T14:19:44;7.70;;;2.97;;
61905;SDS011;47863;55.766;37.672;2022-12-24T14:22:29;10.00;;;4.43;;
61905;SDS011;47863;55.766;37.672;2022-12-24T14:25:00;6.88;;;3.20;;
61905;SDS011;47863;55.766;37.672;2022-12-24T14:30:30;5.93;;;3.30;;
61905;SDS011;47863;55.766;37.672;2022-12-24T14:32:56;5.00;;;2.42;;
61905;SDS011;47863;55.766;37.672;2022-12-24T14:35:23;4.35;;;2.58;;
61905;SDS011;47863;55.766;37.672;2022-12-24T14:37:59;4.72;;;2.42;;
61905;SDS011;47863;55.766;37.672;2022-12-24T14:40:25;6.57;;;3.15;;
61905;SDS011;47863;55.766;37.672;2022-12-24T14:43:04;6.55;;;3.03;;
61905;SDS011;47863;55.766;37.672;2022-12-24T14:45:43;5.97;;;3.05;;
61905;SDS011;47863;55.766;37.672;2022-12-24T14:54:02;7.43;;;3.17;;
61905;SDS011;47863;55.766;37.672;2022-12-24T14:56:38;5.32;;;2.33;;
61905;SDS011;47863;55.766;37.672;2022-12-24T14:59:14;6.47;;;3.33;;
61905;SDS011;47863;55.766;37.672;2022-12-24T15:01:41;21.75;;;6.70;;
61905;SDS011;47863;55.766;37.672;2022-12-24T15:06:39;6.47;;;3.05;;
61905;SDS011;47863;55.766;37.672;2022-12-24T15:09:28;5.53;;;2.47;;
61905;SDS011;47863;55.766;37.672;2022-12-24T15:11:56;8.13;;;3.53;;
61905;SDS011;47863;55.766;37.672;2022-12-24T15:14:25;5.07;;;2.50;;
61905;SDS011;47863;55.766;37.672;2022-12-24T15:16:53;4.65;;;2.75;;
61905;SDS011;47863;55.766;37.672;2022-12-24T15:21:57;6.10;;;3.33;;
61905;SDS011;47863;55.766;37.672;2022-12-24T15:24:27;6.50;;;2.53;;
61905;SDS011;47863;55.766;37.672;2022-12-24T15:26:56;6.88;;;3.05;;
61905;SDS011;47863;55.766;37.672;2022-12-24T15:29:27;6.47;;;3.40;;
61905;SDS011;47863;55.766;37.672;2022-12-24T15:31:56;4.47;;;2.30;;
61905;SDS011;47863;55.766;37.672;2022-12-24T15:34:34;7.38;;;3.72;;
61905;SDS011;47863;55.766;37.672;2022-12-24T15:37:01;11.15;;;5.30;;
61905;SDS011;47863;55.766;37.672;2022-12-24T15:39:28;33.20;;;11.43;;
61905;SDS011;47863;55.766;37.672;2022-12-24T15:41:54;42.60;;;11.93;;
61905;SDS011;47863;55.766;37.672;2022-12-24T15:44:39;10.02;;;3.72;;
61905;SDS011;47863;55.766;37.672;2022-12-24T15:47:13;8.48;;;3.97;;
61905;SDS011;47863;55.766;37.672;2022-12-24T15:49:43;6.05;;;2.78;;
61905;SDS011;47863;55.766;37.672;2022-12-24T15:52:13;7.35;;;3.05;;
61905;SDS011;47863;55.766;37.672;2022-12-24T15:54:42;6.22;;;3.03;;
61905;SDS011;47863;55.766;37.672;2022-12-24T15:57:22;5.43;;;3.03;;
61905;SDS011;47863;55.766;37.672;2022-12-24T15:59:57;6.05;;;2.97;;
61905;SDS011;47863;55.766;37.672;2022-12-24T16:04:49;37.03;;;13.05;;
61905;SDS011;47863;55.766;37.672;2022-12-24T16:07:25;9.50;;;4.60;;
61905;SDS011;47863;55.766;37.672;2022-12-24T16:10:23;7.38;;;3.38;;
61905;SDS011;47863;55.766;37.672;2022-12-24T16:12:50;8.38;;;3.65;;
61905;SDS011;47863;55.766;37.672;2022-12-24T16:15:15;7.88;;;3.10;;
61905;SDS011;47863;55.766;37.672;2022-12-24T16:17:43;7.40;;;3.40;;
61905;SDS011;47863;55.766;37.672;2022-12-24T16:20:17;5.45;;;3.03;;
61905;SDS011;47863;55.766;37.672;2022-12-24T16:22:45;10.20;;;3.45;;
61905;SDS011;47863;55.766;37.672;2022-12-24T16:25:20;6.57;;;3.03;;
61905;SDS011;47863;55.766;37.672;2022-12-24T16:27:49;5.03;;;2.40;;
61905;SDS011;47863;55.766;37.672;2022-12-24T16:30:15;9.15;;;3.92;;
61905;SDS011;47863;55.766;37.672;2022-12-24T16:32:41;7.78;;;4.20;;
61905;SDS011;47863;55.766;37.672;2022-12-24T16:35:11;6.50;;;3.40;;
61905;SDS011;47863;55.766;37.672;2022-12-24T16:37:46;8.63;;;4.25;;
61905;SDS011;47863;55.766;37.672;2022-12-24T16:40:13;8.63;;;4.15;;
61905;SDS011;47863;55.766;37.672;2022-12-24T16:42:39;10.88;;;4.50;;
61905;SDS011;47863;55.766;37.672;2022-12-24T16:45:23;16.65;;;6.38;;
61905;SDS011;47863;55.766;37.672;2022-12-24T16:47:49;8.98;;;3.90;;